sensor_id;sensor_type;location;lat;lon;timestamp;P1;durP1;ratioP1;P2;durP2;ratioP2
59416;SDS011;45222;52.458;20.914;2022-07-23T00:01:45;25.50;;;20.00;;
59416;SDS011;45222;52.458;20.914;2022-07-23T00:04:48;26.50;;;19.40;;
59416;SDS011;45222;52.458;20.914;2022-07-23T00:07:51;25.20;;;20.30;;
59416;SDS011;45222;52.458;20.914;2022-07-23T00:10:52;25.90;;;20.00;;
59416;SDS011;45222;52.458;20.914;2022-07-23T00:13:54;26.30;;;20.20;;
59416;SDS011;45222;52.458;20.914;2022-07-23T00:16:58;28.00;;;20.30;;
59416;SDS011;45222;52.458;20.914;2022-07-23T00:20:00;23.60;;;19.40;;
59416;SDS011;45222;52.458;20.914;2022-07-23T00:23:02;24.30;;;19.60;;
59416;SDS011;45222;52.458;20.914;2022-07-23T00:26:04;23.20;;;18.80;;
59416;SDS011;45222;52.458;20.914;2022-07-23T00:29:08;22.50;;;19.10;;
59416;SDS011;45222;52.458;20.914;2022-07-23T00:32:10;26.80;;;19.60;;
59416;SDS011;45222;52.458;20.914;2022-07-23T00:35:12;25.50;;;19.10;;
59416;SDS011;45222;52.458;20.914;2022-07-23T00:38:14;23.30;;;19.30;;
59416;SDS011;45222;52.458;20.914;2022-07-23T00:41:15;22.80;;;18.70;;
59416;SDS011;45222;52.458;20.914;2022-07-23T00:44:18;23.70;;;18.60;;
59416;SDS011;45222;52.458;20.914;2022-07-23T00:47:20;24.50;;;17.90;;
59416;SDS011;45222;52.458;20.914;2022-07-23T00:50:22;23.80;;;18.70;;
59416;SDS011;45222;52.458;20.914;2022-07-23T00:53:24;22.20;;;18.60;;
59416;SDS011;45222;52.458;20.914;2022-07-23T00:56:28;23.50;;;18.90;;
59416;SDS011;45222;52.458;20.914;2022-07-23T00:59:37;25.60;;;19.70;;
59416;SDS011;45222;52.458;20.914;2022-07-23T01:02:44;24.90;;;20.40;;
59416;SDS011;45222;52.458;20.914;2022-07-23T01:05:45;22.20;;;19.10;;
59416;SDS011;45222;52.458;20.914;2022-07-23T01:08:47;22.90;;;20.10;;
59416;SDS011;45222;52.458;20.914;2022-07-23T01:11:49;23.00;;;18.50;;
59416;SDS011;45222;52.458;20.914;2022-07-23T01:14:55;24.80;;;19.90;;
59416;SDS011;45222;52.458;20.914;2022-07-23T01:17:57;25.50;;;19.60;;
59416;SDS011;45222;52.458;20.914;2022-07-23T01:20:59;25.30;;;21.10;;
59416;SDS011;45222;52.458;20.914;2022-07-23T01:24:01;24.00;;;20.30;;
59416;SDS011;45222;52.458;20.914;2022-07-23T01:27:03;21.70;;;19.40;;
59416;SDS011;45222;52.458;20.914;2022-07-23T01:30:07;22.80;;;18.60;;
59416;SDS011;45222;52.458;20.914;2022-07-23T01:33:09;21.70;;;18.40;;
59416;SDS011;45222;52.458;20.914;2022-07-23T01:36:11;23.70;;;19.50;;
59416;SDS011;45222;52.458;20.914;2022-07-23T01:39:13;24.00;;;20.70;;
59416;SDS011;45222;52.458;20.914;2022-07-23T01:42:15;20.90;;;17.50;;
59416;SDS011;45222;52.458;20.914;2022-07-23T01:45:17;21.00;;;15.90;;
59416;SDS011;45222;52.458;20.914;2022-07-23T01:48:19;17.70;;;15.80;;
59416;SDS011;45222;52.458;20.914;2022-07-23T01:51:21;16.10;;;14.30;;
59416;SDS011;45222;52.458;20.914;2022-07-23T01:54:23;18.10;;;14.90;;
59416;SDS011;45222;52.458;20.914;2022-07-23T01:57:25;17.00;;;14.70;;
59416;SDS011;45222;52.458;20.914;2022-07-23T02:00:26;19.40;;;14.60;;
59416;SDS011;45222;52.458;20.914;2022-07-23T02:03:28;18.60;;;15.30;;
59416;SDS011;45222;52.458;20.914;2022-07-23T02:06:30;19.80;;;15.60;;
59416;SDS011;45222;52.458;20.914;2022-07-23T02:09:32;18.70;;;14.90;;
59416;SDS011;45222;52.458;20.914;2022-07-23T02:12:34;21.80;;;15.10;;
59416;SDS011;45222;52.458;20.914;2022-07-23T02:15:36;18.30;;;15.80;;
59416;SDS011;45222;52.458;20.914;2022-07-23T02:18:38;18.80;;;15.70;;
59416;SDS011;45222;52.458;20.914;2022-07-23T02:21:40;20.20;;;14.90;;
59416;SDS011;45222;52.458;20.914;2022-07-23T02:24:42;19.40;;;15.40;;
59416;SDS011;45222;52.458;20.914;2022-07-23T02:27:44;20.10;;;15.30;;
59416;SDS011;45222;52.458;20.914;2022-07-23T02:30:46;19.70;;;15.90;;
59416;SDS011;45222;52.458;20.914;2022-07-23T02:33:49;20.40;;;16.90;;
59416;SDS011;45222;52.458;20.914;2022-07-23T02:36:51;19.70;;;16.60;;
59416;SDS011;45222;52.458;20.914;2022-07-23T02:39:53;20.60;;;16.70;;
59416;SDS011;45222;52.458;20.914;2022-07-23T02:42:55;19.90;;;16.90;;
59416;SDS011;45222;52.458;20.914;2022-07-23T02:45:57;20.70;;;16.30;;
59416;SDS011;45222;52.458;20.914;2022-07-23T02:48:58;22.60;;;16.20;;
59416;SDS011;45222;52.458;20.914;2022-07-23T02:52:00;19.20;;;16.00;;
59416;SDS011;45222;52.458;20.914;2022-07-23T02:55:02;20.30;;;16.70;;
59416;SDS011;45222;52.458;20.914;2022-07-23T02:58:04;20.40;;;16.50;;
59416;SDS011;45222;52.458;20.914;2022-07-23T03:01:06;20.10;;;17.00;;
59416;SDS011;45222;52.458;20.914;2022-07-23T03:04:08;19.30;;;16.50;;
59416;SDS011;45222;52.458;20.914;2022-07-23T03:07:10;20.80;;;16.30;;
59416;SDS011;45222;52.458;20.914;2022-07-23T03:10:14;20.80;;;16.90;;
59416;SDS011;45222;52.458;20.914;2022-07-23T03:13:21;18.70;;;16.30;;
59416;SDS011;45222;52.458;20.914;2022-07-23T03:16:28;19.80;;;15.50;;
59416;SDS011;45222;52.458;20.914;2022-07-23T03:19:30;17.70;;;15.60;;
59416;SDS011;45222;52.458;20.914;2022-07-23T03:22:32;18.80;;;16.40;;
59416;SDS011;45222;52.458;20.914;2022-07-23T03:25:34;18.80;;;16.70;;
59416;SDS011;45222;52.458;20.914;2022-07-23T03:28:35;21.80;;;17.10;;
59416;SDS011;45222;52.458;20.914;2022-07-23T03:31:37;21.00;;;17.40;;
59416;SDS011;45222;52.458;20.914;2022-07-23T03:34:39;19.20;;;16.10;;
59416;SDS011;45222;52.458;20.914;2022-07-23T03:37:41;19.00;;;15.90;;
59416;SDS011;45222;52.458;20.914;2022-07-23T03:40:43;19.10;;;15.40;;
59416;SDS011;45222;52.458;20.914;2022-07-23T03:43:44;18.20;;;14.70;;
59416;SDS011;45222;52.458;20.914;2022-07-23T03:46:46;18.40;;;15.60;;
59416;SDS011;45222;52.458;20.914;2022-07-23T03:49:48;18.40;;;15.60;;
59416;SDS011;45222;52.458;20.914;2022-07-23T03:52:50;22.20;;;16.20;;
59416;SDS011;45222;52.458;20.914;2022-07-23T03:55:53;20.30;;;15.80;;
59416;SDS011;45222;52.458;20.914;2022-07-23T03:58:57;18.00;;;15.10;;
59416;SDS011;45222;52.458;20.914;2022-07-23T04:01:58;21.50;;;14.80;;
59416;SDS011;45222;52.458;20.914;2022-07-23T04:05:00;19.30;;;14.60;;
59416;SDS011;45222;52.458;20.914;2022-07-23T04:08:02;19.60;;;14.30;;
59416;SDS011;45222;52.458;20.914;2022-07-23T04:11:04;17.40;;;15.10;;
59416;SDS011;45222;52.458;20.914;2022-07-23T04:14:06;18.80;;;15.70;;
59416;SDS011;45222;52.458;20.914;2022-07-23T04:17:08;20.50;;;15.00;;
59416;SDS011;45222;52.458;20.914;2022-07-23T04:20:11;19.50;;;16.10;;
59416;SDS011;45222;52.458;20.914;2022-07-23T04:23:13;20.60;;;16.00;;
59416;SDS011;45222;52.458;20.914;2022-07-23T04:26:14;19.40;;;15.90;;
59416;SDS011;45222;52.458;20.914;2022-07-23T04:29:17;18.00;;;14.80;;
59416;SDS011;45222;52.458;20.914;2022-07-23T04:32:18;18.50;;;15.70;;
59416;SDS011;45222;52.458;20.914;2022-07-23T04:35:20;19.50;;;15.90;;
59416;SDS011;45222;52.458;20.914;2022-07-23T04:38:22;17.20;;;15.20;;
59416;SDS011;45222;52.458;20.914;2022-07-23T04:41:24;18.50;;;16.00;;
59416;SDS011;45222;52.458;20.914;2022-07-23T04:44:26;21.30;;;16.40;;
59416;SDS011;45222;52.458;20.914;2022-07-23T04:47:28;19.80;;;16.20;;
59416;SDS011;45222;52.458;20.914;2022-07-23T04:50:29;19.20;;;15.60;;
59416;SDS011;45222;52.458;20.914;2022-07-23T04:53:31;18.30;;;14.90;;
59416;SDS011;45222;52.458;20.914;2022-07-23T04:56:33;16.80;;;14.70;;
59416;SDS011;45222;52.458;20.914;2022-07-23T04:59:35;19.40;;;15.50;;
59416;SDS011;45222;52.458;20.914;2022-07-23T05:02:37;17.80;;;15.90;;
59416;SDS011;45222;52.458;20.914;2022-07-23T05:05:39;18.10;;;15.60;;
59416;SDS011;45222;52.458;20.914;2022-07-23T05:08:41;20.10;;;14.60;;
59416;SDS011;45222;52.458;20.914;2022-07-23T05:11:42;18.40;;;15.60;;
59416;SDS011;45222;52.458;20.914;2022-07-23T05:14:44;17.60;;;15.40;;
59416;SDS011;45222;52.458;20.914;2022-07-23T05:17:46;19.10;;;15.30;;
59416;SDS011;45222;52.458;20.914;2022-07-23T05:20:48;17.50;;;14.20;;
59416;SDS011;45222;52.458;20.914;2022-07-23T05:23:50;16.70;;;14.00;;
59416;SDS011;45222;52.458;20.914;2022-07-23T05:26:52;17.30;;;14.60;;
59416;SDS011;45222;52.458;20.914;2022-07-23T05:29:54;18.10;;;14.20;;
59416;SDS011;45222;52.458;20.914;2022-07-23T05:32:55;18.70;;;14.50;;
59416;SDS011;45222;52.458;20.914;2022-07-23T05:36:01;17.30;;;14.50;;
59416;SDS011;45222;52.458;20.914;2022-07-23T05:42:12;18.80;;;14.50;;
59416;SDS011;45222;52.458;20.914;2022-07-23T05:45:14;18.60;;;14.30;;
59416;SDS011;45222;52.458;20.914;2022-07-23T05:48:16;17.10;;;14.20;;
59416;SDS011;45222;52.458;20.914;2022-07-23T05:51:21;16.70;;;13.70;;
59416;SDS011;45222;52.458;20.914;2022-07-23T05:54:23;16.30;;;14.20;;
59416;SDS011;45222;52.458;20.914;2022-07-23T05:57:24;20.70;;;15.40;;
59416;SDS011;45222;52.458;20.914;2022-07-23T06:00:27;16.80;;;14.20;;
59416;SDS011;45222;52.458;20.914;2022-07-23T06:03:28;15.30;;;12.70;;
59416;SDS011;45222;52.458;20.914;2022-07-23T06:06:30;14.90;;;11.90;;
59416;SDS011;45222;52.458;20.914;2022-07-23T06:09:32;15.10;;;12.50;;
59416;SDS011;45222;52.458;20.914;2022-07-23T06:12:34;16.90;;;12.50;;
59416;SDS011;45222;52.458;20.914;2022-07-23T06:15:37;17.00;;;13.10;;
59416;SDS011;45222;52.458;20.914;2022-07-23T06:18:38;15.80;;;12.00;;
59416;SDS011;45222;52.458;20.914;2022-07-23T06:21:40;18.10;;;13.60;;
59416;SDS011;45222;52.458;20.914;2022-07-23T06:24:42;14.50;;;11.70;;
59416;SDS011;45222;52.458;20.914;2022-07-23T06:27:44;15.80;;;12.60;;
59416;SDS011;45222;52.458;20.914;2022-07-23T06:30:46;17.80;;;12.30;;
59416;SDS011;45222;52.458;20.914;2022-07-23T06:33:48;14.20;;;12.00;;
59416;SDS011;45222;52.458;20.914;2022-07-23T06:36:49;14.30;;;12.00;;
59416;SDS011;45222;52.458;20.914;2022-07-23T06:39:51;14.20;;;12.00;;
59416;SDS011;45222;52.458;20.914;2022-07-23T06:42:53;13.80;;;11.30;;
59416;SDS011;45222;52.458;20.914;2022-07-23T06:45:55;14.20;;;10.90;;
59416;SDS011;45222;52.458;20.914;2022-07-23T06:48:57;13.40;;;11.40;;
59416;SDS011;45222;52.458;20.914;2022-07-23T06:51:59;15.70;;;11.50;;
59416;SDS011;45222;52.458;20.914;2022-07-23T06:55:01;13.80;;;10.50;;
59416;SDS011;45222;52.458;20.914;2022-07-23T06:58:03;12.70;;;11.00;;
59416;SDS011;45222;52.458;20.914;2022-07-23T07:01:05;34.90;;;11.70;;
59416;SDS011;45222;52.458;20.914;2022-07-23T07:04:09;12.70;;;10.70;;
59416;SDS011;45222;52.458;20.914;2022-07-23T07:07:15;12.20;;;10.10;;
59416;SDS011;45222;52.458;20.914;2022-07-23T07:10:23;14.80;;;10.60;;
59416;SDS011;45222;52.458;20.914;2022-07-23T07:13:25;12.50;;;10.70;;
59416;SDS011;45222;52.458;20.914;2022-07-23T07:16:27;12.30;;;9.80;;
59416;SDS011;45222;52.458;20.914;2022-07-23T07:19:29;16.20;;;10.60;;
59416;SDS011;45222;52.458;20.914;2022-07-23T07:22:30;13.40;;;10.00;;
59416;SDS011;45222;52.458;20.914;2022-07-23T07:25:33;13.20;;;10.10;;
59416;SDS011;45222;52.458;20.914;2022-07-23T07:28:34;9.20;;;7.90;;
59416;SDS011;45222;52.458;20.914;2022-07-23T07:31:36;11.10;;;8.80;;
59416;SDS011;45222;52.458;20.914;2022-07-23T07:34:38;10.80;;;9.40;;
59416;SDS011;45222;52.458;20.914;2022-07-23T07:37:40;11.60;;;8.80;;
59416;SDS011;45222;52.458;20.914;2022-07-23T07:40:42;11.50;;;8.70;;
59416;SDS011;45222;52.458;20.914;2022-07-23T07:43:44;9.90;;;8.40;;
59416;SDS011;45222;52.458;20.914;2022-07-23T07:46:45;11.40;;;8.30;;
59416;SDS011;45222;52.458;20.914;2022-07-23T07:49:47;10.10;;;8.10;;
59416;SDS011;45222;52.458;20.914;2022-07-23T07:52:49;10.50;;;7.80;;
59416;SDS011;45222;52.458;20.914;2022-07-23T07:55:51;11.20;;;8.40;;
59416;SDS011;45222;52.458;20.914;2022-07-23T07:58:53;9.50;;;7.60;;
59416;SDS011;45222;52.458;20.914;2022-07-23T08:01:55;9.40;;;7.70;;
59416;SDS011;45222;52.458;20.914;2022-07-23T08:04:57;12.60;;;8.00;;
59416;SDS011;45222;52.458;20.914;2022-07-23T08:07:59;11.90;;;8.10;;
59416;SDS011;45222;52.458;20.914;2022-07-23T08:11:01;9.30;;;8.00;;
59416;SDS011;45222;52.458;20.914;2022-07-23T08:14:06;10.70;;;8.20;;
59416;SDS011;45222;52.458;20.914;2022-07-23T08:17:13;11.60;;;8.50;;
59416;SDS011;45222;52.458;20.914;2022-07-23T08:20:18;12.40;;;8.60;;
59416;SDS011;45222;52.458;20.914;2022-07-23T08:23:20;11.80;;;8.30;;
59416;SDS011;45222;52.458;20.914;2022-07-23T08:26:22;12.10;;;8.20;;
59416;SDS011;45222;52.458;20.914;2022-07-23T08:29:24;12.50;;;8.10;;
59416;SDS011;45222;52.458;20.914;2022-07-23T08:32:26;13.20;;;8.00;;
59416;SDS011;45222;52.458;20.914;2022-07-23T08:35:29;27.10;;;8.80;;
59416;SDS011;45222;52.458;20.914;2022-07-23T08:38:31;11.00;;;8.10;;
59416;SDS011;45222;52.458;20.914;2022-07-23T08:41:34;9.80;;;7.40;;
59416;SDS011;45222;52.458;20.914;2022-07-23T08:44:36;10.20;;;8.20;;
59416;SDS011;45222;52.458;20.914;2022-07-23T08:47:39;8.60;;;7.10;;
59416;SDS011;45222;52.458;20.914;2022-07-23T08:50:43;10.00;;;6.90;;
59416;SDS011;45222;52.458;20.914;2022-07-23T08:53:45;9.00;;;7.60;;
59416;SDS011;45222;52.458;20.914;2022-07-23T08:56:48;10.00;;;7.00;;
59416;SDS011;45222;52.458;20.914;2022-07-23T08:59:50;9.90;;;7.20;;
59416;SDS011;45222;52.458;20.914;2022-07-23T09:02:51;9.40;;;7.10;;
59416;SDS011;45222;52.458;20.914;2022-07-23T09:05:57;76.70;;;8.90;;
59416;SDS011;45222;52.458;20.914;2022-07-23T09:09:17;11.80;;;6.90;;
59416;SDS011;45222;52.458;20.914;2022-07-23T09:12:24;9.10;;;6.70;;
59416;SDS011;45222;52.458;20.914;2022-07-23T09:15:27;8.50;;;6.20;;
59416;SDS011;45222;52.458;20.914;2022-07-23T09:18:29;8.30;;;6.50;;
59416;SDS011;45222;52.458;20.914;2022-07-23T09:21:31;8.60;;;6.90;;
59416;SDS011;45222;52.458;20.914;2022-07-23T09:24:34;10.20;;;6.60;;
59416;SDS011;45222;52.458;20.914;2022-07-23T09:27:49;10.40;;;7.00;;
59416;SDS011;45222;52.458;20.914;2022-07-23T09:30:51;10.40;;;7.20;;
59416;SDS011;45222;52.458;20.914;2022-07-23T09:34:01;10.50;;;6.80;;
59416;SDS011;45222;52.458;20.914;2022-07-23T09:37:09;9.50;;;6.70;;
59416;SDS011;45222;52.458;20.914;2022-07-23T09:40:12;12.70;;;6.40;;
59416;SDS011;45222;52.458;20.914;2022-07-23T09:43:25;8.70;;;6.60;;
59416;SDS011;45222;52.458;20.914;2022-07-23T09:46:28;9.90;;;7.30;;
59416;SDS011;45222;52.458;20.914;2022-07-23T09:49:29;10.10;;;6.80;;
59416;SDS011;45222;52.458;20.914;2022-07-23T09:52:32;11.90;;;7.60;;
59416;SDS011;45222;52.458;20.914;2022-07-23T09:55:35;8.40;;;6.80;;
59416;SDS011;45222;52.458;20.914;2022-07-23T09:58:38;10.90;;;6.90;;
59416;SDS011;45222;52.458;20.914;2022-07-23T10:01:45;8.30;;;6.50;;
59416;SDS011;45222;52.458;20.914;2022-07-23T10:04:47;9.70;;;6.50;;
59416;SDS011;45222;52.458;20.914;2022-07-23T10:07:49;8.60;;;6.20;;
59416;SDS011;45222;52.458;20.914;2022-07-23T10:10:52;8.40;;;6.10;;
59416;SDS011;45222;52.458;20.914;2022-07-23T10:13:55;8.90;;;6.50;;
59416;SDS011;45222;52.458;20.914;2022-07-23T10:17:00;10.60;;;6.50;;
59416;SDS011;45222;52.458;20.914;2022-07-23T10:20:02;8.10;;;5.70;;
59416;SDS011;45222;52.458;20.914;2022-07-23T10:23:07;8.90;;;5.90;;
59416;SDS011;45222;52.458;20.914;2022-07-23T10:26:12;8.60;;;6.00;;
59416;SDS011;45222;52.458;20.914;2022-07-23T10:29:20;10.90;;;6.60;;
59416;SDS011;45222;52.458;20.914;2022-07-23T10:32:28;10.30;;;6.50;;
59416;SDS011;45222;52.458;20.914;2022-07-23T10:35:36;9.00;;;6.10;;
59416;SDS011;45222;52.458;20.914;2022-07-23T10:38:41;7.90;;;6.00;;
59416;SDS011;45222;52.458;20.914;2022-07-23T10:41:44;8.00;;;5.80;;
59416;SDS011;45222;52.458;20.914;2022-07-23T10:44:47;22.40;;;6.30;;
59416;SDS011;45222;52.458;20.914;2022-07-23T10:47:49;10.20;;;5.60;;
59416;SDS011;45222;52.458;20.914;2022-07-23T10:51:08;8.60;;;5.60;;
59416;SDS011;45222;52.458;20.914;2022-07-23T10:54:18;15.90;;;5.90;;
59416;SDS011;45222;52.458;20.914;2022-07-23T10:57:22;9.50;;;5.70;;
59416;SDS011;45222;52.458;20.914;2022-07-23T11:00:25;7.40;;;5.70;;
59416;SDS011;45222;52.458;20.914;2022-07-23T11:03:28;10.80;;;5.70;;
59416;SDS011;45222;52.458;20.914;2022-07-23T11:09:53;12.00;;;5.70;;
59416;SDS011;45222;52.458;20.914;2022-07-23T11:12:55;10.60;;;5.30;;
59416;SDS011;45222;52.458;20.914;2022-07-23T11:16:12;16.20;;;5.70;;
59416;SDS011;45222;52.458;20.914;2022-07-23T11:19:14;21.80;;;6.80;;
59416;SDS011;45222;52.458;20.914;2022-07-23T11:22:20;8.20;;;5.00;;
59416;SDS011;45222;52.458;20.914;2022-07-23T11:25:35;7.90;;;5.30;;
59416;SDS011;45222;52.458;20.914;2022-07-23T11:28:37;10.10;;;5.30;;
59416;SDS011;45222;52.458;20.914;2022-07-23T11:31:39;7.10;;;4.80;;
59416;SDS011;45222;52.458;20.914;2022-07-23T11:34:52;9.30;;;4.80;;
59416;SDS011;45222;52.458;20.914;2022-07-23T11:38:03;7.40;;;5.20;;
59416;SDS011;45222;52.458;20.914;2022-07-23T11:41:05;13.80;;;5.20;;
59416;SDS011;45222;52.458;20.914;2022-07-23T11:47:25;7.90;;;4.80;;
59416;SDS011;45222;52.458;20.914;2022-07-23T11:50:27;8.40;;;5.10;;
59416;SDS011;45222;52.458;20.914;2022-07-23T11:53:30;13.10;;;5.20;;
59416;SDS011;45222;52.458;20.914;2022-07-23T11:56:32;34.40;;;6.40;;
59416;SDS011;45222;52.458;20.914;2022-07-23T11:59:35;11.40;;;5.50;;
59416;SDS011;45222;52.458;20.914;2022-07-23T12:02:37;7.90;;;5.00;;
59416;SDS011;45222;52.458;20.914;2022-07-23T12:05:39;8.20;;;5.20;;
59416;SDS011;45222;52.458;20.914;2022-07-23T12:08:41;7.40;;;5.30;;
59416;SDS011;45222;52.458;20.914;2022-07-23T12:11:56;9.20;;;5.30;;
59416;SDS011;45222;52.458;20.914;2022-07-23T12:14:58;7.90;;;5.40;;
59416;SDS011;45222;52.458;20.914;2022-07-23T12:18:00;8.50;;;5.40;;
59416;SDS011;45222;52.458;20.914;2022-07-23T12:21:03;8.80;;;5.70;;
59416;SDS011;45222;52.458;20.914;2022-07-23T12:24:08;92.10;;;9.30;;
59416;SDS011;45222;52.458;20.914;2022-07-23T12:27:12;10.60;;;5.60;;
59416;SDS011;45222;52.458;20.914;2022-07-23T12:30:21;10.10;;;6.10;;
59416;SDS011;45222;52.458;20.914;2022-07-23T12:33:24;8.00;;;5.40;;
59416;SDS011;45222;52.458;20.914;2022-07-23T12:39:32;9.30;;;5.70;;
59416;SDS011;45222;52.458;20.914;2022-07-23T12:42:41;7.50;;;5.10;;
59416;SDS011;45222;52.458;20.914;2022-07-23T12:45:44;9.20;;;5.60;;
59416;SDS011;45222;52.458;20.914;2022-07-23T12:48:51;8.50;;;5.70;;
59416;SDS011;45222;52.458;20.914;2022-07-23T12:52:00;8.40;;;6.00;;
59416;SDS011;45222;52.458;20.914;2022-07-23T12:55:05;7.80;;;5.80;;
59416;SDS011;45222;52.458;20.914;2022-07-23T12:58:08;7.70;;;5.60;;
59416;SDS011;45222;52.458;20.914;2022-07-23T13:01:22;10.20;;;5.90;;
59416;SDS011;45222;52.458;20.914;2022-07-23T13:04:24;7.20;;;5.20;;
59416;SDS011;45222;52.458;20.914;2022-07-23T13:07:26;10.80;;;6.40;;
59416;SDS011;45222;52.458;20.914;2022-07-23T13:10:28;8.10;;;5.20;;
59416;SDS011;45222;52.458;20.914;2022-07-23T13:13:31;8.30;;;5.40;;
59416;SDS011;45222;52.458;20.914;2022-07-23T13:16:33;7.40;;;5.20;;
59416;SDS011;45222;52.458;20.914;2022-07-23T13:19:35;8.80;;;5.40;;
59416;SDS011;45222;52.458;20.914;2022-07-23T13:22:39;10.10;;;5.70;;
59416;SDS011;45222;52.458;20.914;2022-07-23T13:25:42;8.80;;;5.60;;
59416;SDS011;45222;52.458;20.914;2022-07-23T13:28:44;30.70;;;6.20;;
59416;SDS011;45222;52.458;20.914;2022-07-23T13:31:46;10.30;;;5.40;;
59416;SDS011;45222;52.458;20.914;2022-07-23T13:34:49;11.10;;;6.00;;
59416;SDS011;45222;52.458;20.914;2022-07-23T13:37:50;8.40;;;5.50;;
59416;SDS011;45222;52.458;20.914;2022-07-23T13:40:54;10.60;;;5.70;;
59416;SDS011;45222;52.458;20.914;2022-07-23T13:44:04;11.40;;;6.30;;
59416;SDS011;45222;52.458;20.914;2022-07-23T13:47:10;9.70;;;5.80;;
59416;SDS011;45222;52.458;20.914;2022-07-23T13:50:12;8.00;;;6.00;;
59416;SDS011;45222;52.458;20.914;2022-07-23T13:53:17;7.80;;;5.70;;
59416;SDS011;45222;52.458;20.914;2022-07-23T13:56:20;10.30;;;6.20;;
59416;SDS011;45222;52.458;20.914;2022-07-23T13:59:22;10.60;;;5.80;;
59416;SDS011;45222;52.458;20.914;2022-07-23T14:02:24;7.90;;;5.60;;
59416;SDS011;45222;52.458;20.914;2022-07-23T14:05:26;7.80;;;6.00;;
59416;SDS011;45222;52.458;20.914;2022-07-23T14:08:28;7.80;;;5.80;;
59416;SDS011;45222;52.458;20.914;2022-07-23T14:11:30;11.00;;;6.20;;
59416;SDS011;45222;52.458;20.914;2022-07-23T14:14:33;10.50;;;5.70;;
59416;SDS011;45222;52.458;20.914;2022-07-23T14:17:35;9.70;;;6.30;;
59416;SDS011;45222;52.458;20.914;2022-07-23T14:20:37;57.20;;;9.20;;
59416;SDS011;45222;52.458;20.914;2022-07-23T14:23:39;11.20;;;6.30;;
59416;SDS011;45222;52.458;20.914;2022-07-23T14:26:41;16.20;;;6.20;;
59416;SDS011;45222;52.458;20.914;2022-07-23T14:29:43;10.90;;;5.60;;
59416;SDS011;45222;52.458;20.914;2022-07-23T14:32:45;7.90;;;5.70;;
59416;SDS011;45222;52.458;20.914;2022-07-23T14:35:47;10.20;;;5.60;;
59416;SDS011;45222;52.458;20.914;2022-07-23T14:38:49;7.90;;;5.10;;
59416;SDS011;45222;52.458;20.914;2022-07-23T14:41:51;9.50;;;5.90;;
59416;SDS011;45222;52.458;20.914;2022-07-23T14:44:53;11.90;;;6.00;;
59416;SDS011;45222;52.458;20.914;2022-07-23T14:47:55;8.70;;;5.20;;
59416;SDS011;45222;52.458;20.914;2022-07-23T14:50:56;9.60;;;5.40;;
59416;SDS011;45222;52.458;20.914;2022-07-23T14:53:59;11.10;;;5.70;;
59416;SDS011;45222;52.458;20.914;2022-07-23T14:57:00;21.30;;;6.10;;
59416;SDS011;45222;52.458;20.914;2022-07-23T15:00:04;8.30;;;5.30;;
59416;SDS011;45222;52.458;20.914;2022-07-23T15:03:07;74.70;;;7.60;;
59416;SDS011;45222;52.458;20.914;2022-07-23T15:06:08;12.30;;;5.40;;
59416;SDS011;45222;52.458;20.914;2022-07-23T15:09:10;12.80;;;5.50;;
59416;SDS011;45222;52.458;20.914;2022-07-23T15:12:12;13.20;;;7.00;;
59416;SDS011;45222;52.458;20.914;2022-07-23T15:15:16;13.60;;;6.90;;
59416;SDS011;45222;52.458;20.914;2022-07-23T15:18:25;14.20;;;7.00;;
59416;SDS011;45222;52.458;20.914;2022-07-23T15:24:31;13.50;;;6.80;;
59416;SDS011;45222;52.458;20.914;2022-07-23T15:27:33;12.60;;;6.80;;
59416;SDS011;45222;52.458;20.914;2022-07-23T15:30:35;11.80;;;6.80;;
59416;SDS011;45222;52.458;20.914;2022-07-23T15:33:39;12.90;;;7.20;;
59416;SDS011;45222;52.458;20.914;2022-07-23T15:36:47;12.40;;;7.10;;
59416;SDS011;45222;52.458;20.914;2022-07-23T15:39:54;11.60;;;6.90;;
59416;SDS011;45222;52.458;20.914;2022-07-23T15:42:56;13.30;;;7.80;;
59416;SDS011;45222;52.458;20.914;2022-07-23T15:45:58;11.80;;;7.20;;
59416;SDS011;45222;52.458;20.914;2022-07-23T15:49:00;9.80;;;6.60;;
59416;SDS011;45222;52.458;20.914;2022-07-23T15:52:02;12.20;;;6.90;;
59416;SDS011;45222;52.458;20.914;2022-07-23T15:55:07;9.50;;;6.60;;
59416;SDS011;45222;52.458;20.914;2022-07-23T15:58:09;8.00;;;5.60;;
59416;SDS011;45222;52.458;20.914;2022-07-23T16:01:12;9.00;;;6.10;;
59416;SDS011;45222;52.458;20.914;2022-07-23T16:04:14;10.70;;;7.20;;
59416;SDS011;45222;52.458;20.914;2022-07-23T16:07:16;8.40;;;5.80;;
59416;SDS011;45222;52.458;20.914;2022-07-23T16:10:18;11.30;;;5.90;;
59416;SDS011;45222;52.458;20.914;2022-07-23T16:13:20;11.30;;;6.50;;
59416;SDS011;45222;52.458;20.914;2022-07-23T16:16:22;11.00;;;6.90;;
59416;SDS011;45222;52.458;20.914;2022-07-23T16:19:25;11.80;;;7.30;;
59416;SDS011;45222;52.458;20.914;2022-07-23T16:22:28;10.40;;;6.60;;
59416;SDS011;45222;52.458;20.914;2022-07-23T16:25:30;11.30;;;7.10;;
59416;SDS011;45222;52.458;20.914;2022-07-23T16:28:31;10.60;;;7.30;;
59416;SDS011;45222;52.458;20.914;2022-07-23T16:31:34;11.40;;;7.10;;
59416;SDS011;45222;52.458;20.914;2022-07-23T16:34:35;11.50;;;7.40;;
59416;SDS011;45222;52.458;20.914;2022-07-23T16:37:38;11.60;;;7.30;;
59416;SDS011;45222;52.458;20.914;2022-07-23T16:40:40;11.70;;;7.40;;
59416;SDS011;45222;52.458;20.914;2022-07-23T16:43:41;12.60;;;7.90;;
59416;SDS011;45222;52.458;20.914;2022-07-23T16:46:43;13.50;;;8.60;;
59416;SDS011;45222;52.458;20.914;2022-07-23T16:49:45;10.30;;;7.90;;
59416;SDS011;45222;52.458;20.914;2022-07-23T16:52:47;11.40;;;8.00;;
59416;SDS011;45222;52.458;20.914;2022-07-23T16:55:49;12.00;;;8.60;;
59416;SDS011;45222;52.458;20.914;2022-07-23T16:58:51;11.90;;;8.00;;
59416;SDS011;45222;52.458;20.914;2022-07-23T17:01:53;11.60;;;7.50;;
59416;SDS011;45222;52.458;20.914;2022-07-23T17:04:54;11.00;;;7.50;;
59416;SDS011;45222;52.458;20.914;2022-07-23T17:07:56;9.30;;;6.50;;
59416;SDS011;45222;52.458;20.914;2022-07-23T17:11:00;54.40;;;39.50;;
59416;SDS011;45222;52.458;20.914;2022-07-23T17:14:02;27.10;;;19.40;;
59416;SDS011;45222;52.458;20.914;2022-07-23T17:17:04;10.50;;;7.00;;
59416;SDS011;45222;52.458;20.914;2022-07-23T17:20:09;17.20;;;15.10;;
59416;SDS011;45222;52.458;20.914;2022-07-23T17:23:13;10.00;;;6.70;;
59416;SDS011;45222;52.458;20.914;2022-07-23T17:26:15;10.60;;;6.50;;
59416;SDS011;45222;52.458;20.914;2022-07-23T17:29:17;9.70;;;6.70;;
59416;SDS011;45222;52.458;20.914;2022-07-23T17:32:19;11.50;;;6.50;;
59416;SDS011;45222;52.458;20.914;2022-07-23T17:35:21;11.00;;;7.70;;
59416;SDS011;45222;52.458;20.914;2022-07-23T17:38:23;18.30;;;13.10;;
59416;SDS011;45222;52.458;20.914;2022-07-23T17:41:25;10.50;;;6.20;;
59416;SDS011;45222;52.458;20.914;2022-07-23T17:44:27;8.60;;;5.90;;
59416;SDS011;45222;52.458;20.914;2022-07-23T17:47:28;9.70;;;6.50;;
59416;SDS011;45222;52.458;20.914;2022-07-23T17:50:31;11.80;;;9.90;;
59416;SDS011;45222;52.458;20.914;2022-07-23T17:53:33;8.40;;;5.40;;
59416;SDS011;45222;52.458;20.914;2022-07-23T17:56:35;10.00;;;5.60;;
59416;SDS011;45222;52.458;20.914;2022-07-23T17:59:37;8.20;;;5.90;;
59416;SDS011;45222;52.458;20.914;2022-07-23T18:02:39;9.50;;;5.90;;